Bordersville, Texas
Current Conditions -  °F | °C
As of 2:53 AM on Monday 24 Nov 2014 (Local Time) from KIAH Reporting Station
Clear Clear  
Wind Chill: 57°   Ceiling: Unl
Heat Index: 57°   Visibility: 10mi
Dew Point: 42°   Wind: 14mph
Humidity: 57%   Direction: 330°NNW
Pressure: 29.84"   Gusts: NA
Location:  30.0245°N, 95.2914°W
Report Text: KIAH 240853Z 33012KT 10SM CLR 14/06 A2984 RMK AO2 SLP104 T01390056 52031
Loading
Personal Weather Stations






























Interactive Weather Map New forecast layout! Learn more

10-Day Weather Forecast

Advertisements
Track Severe Weather on mobile